sensor_id;sensor_type;location;lat;lon;timestamp;P1;durP1;ratioP1;P2;durP2;ratioP2
1460;SDS011;724;49.910;12.530;2023-09-19T00:01:38;1.80;;;1.70;;
1460;SDS011;724;49.910;12.530;2023-09-19T00:04:07;2.20;;;2.00;;
1460;SDS011;724;49.910;12.530;2023-09-19T00:06:34;2.70;;;2.50;;
1460;SDS011;724;49.910;12.530;2023-09-19T00:09:01;2.70;;;2.50;;
1460;SDS011;724;49.910;12.530;2023-09-19T00:11:29;2.40;;;2.20;;
1460;SDS011;724;49.910;12.530;2023-09-19T00:13:56;2.60;;;2.40;;
1460;SDS011;724;49.910;12.530;2023-09-19T00:16:24;2.57;;;2.37;;
1460;SDS011;724;49.910;12.530;2023-09-19T00:18:52;2.37;;;2.17;;
1460;SDS011;724;49.910;12.530;2023-09-19T01:14:06;1.60;;;1.50;;
1460;SDS011;724;49.910;12.530;2023-09-19T01:16:45;1.63;;;1.53;;
1460;SDS011;724;49.910;12.530;2023-09-19T01:19:43;2.00;;;1.90;;
1460;SDS011;724;49.910;12.530;2023-09-19T01:22:41;2.20;;;2.00;;
1460;SDS011;724;49.910;12.530;2023-09-19T01:39:01;1.80;;;1.70;;
1460;SDS011;724;49.910;12.530;2023-09-19T01:41:44;2.13;;;1.97;;
1460;SDS011;724;49.910;12.530;2023-09-19T01:44:21;1.90;;;1.80;;
1460;SDS011;724;49.910;12.530;2023-09-19T01:46:55;2.00;;;1.90;;
1460;SDS011;724;49.910;12.530;2023-09-19T01:49:32;1.80;;;1.70;;
1460;SDS011;724;49.910;12.530;2023-09-19T01:52:05;1.97;;;1.87;;
1460;SDS011;724;49.910;12.530;2023-09-19T01:54:41;2.07;;;1.93;;
1460;SDS011;724;49.910;12.530;2023-09-19T01:57:14;2.00;;;1.90;;
1460;SDS011;724;49.910;12.530;2023-09-19T01:59:48;1.70;;;1.60;;
1460;SDS011;724;49.910;12.530;2023-09-19T02:02:21;1.80;;;1.70;;
1460;SDS011;724;49.910;12.530;2023-09-19T02:04:49;1.70;;;1.60;;
1460;SDS011;724;49.910;12.530;2023-09-19T02:07:16;1.67;;;1.57;;
1460;SDS011;724;49.910;12.530;2023-09-19T02:09:44;1.90;;;1.80;;
1460;SDS011;724;49.910;12.530;2023-09-19T02:12:13;1.93;;;1.83;;
1460;SDS011;724;49.910;12.530;2023-09-19T02:14:40;1.70;;;1.60;;
1460;SDS011;724;49.910;12.530;2023-09-19T02:17:07;2.00;;;1.90;;
1460;SDS011;724;49.910;12.530;2023-09-19T02:19:36;2.27;;;2.07;;
1460;SDS011;724;49.910;12.530;2023-09-19T02:48:04;2.80;;;2.60;;
1460;SDS011;724;49.910;12.530;2023-09-19T02:50:31;3.10;;;2.90;;
1460;SDS011;724;49.910;12.530;2023-09-19T02:52:59;2.50;;;2.30;;
1460;SDS011;724;49.910;12.530;2023-09-19T02:55:26;3.10;;;2.90;;
1460;SDS011;724;49.910;12.530;2023-09-19T02:57:53;3.10;;;2.90;;
1460;SDS011;724;49.910;12.530;2023-09-19T03:02:56;3.30;;;3.10;;
1460;SDS011;724;49.910;12.530;2023-09-19T03:05:25;3.03;;;2.83;;
1460;SDS011;724;49.910;12.530;2023-09-19T03:07:55;3.00;;;2.80;;
1460;SDS011;724;49.910;12.530;2023-09-19T03:10:25;2.90;;;2.70;;
1460;SDS011;724;49.910;12.530;2023-09-19T03:12:53;2.90;;;2.70;;
1460;SDS011;724;49.910;12.530;2023-09-19T03:25:42;3.00;;;2.80;;
1460;SDS011;724;49.910;12.530;2023-09-19T03:28:10;2.60;;;2.40;;
1460;SDS011;724;49.910;12.530;2023-09-19T03:30:36;2.80;;;2.60;;
1460;SDS011;724;49.910;12.530;2023-09-19T03:33:03;2.50;;;2.30;;
1460;SDS011;724;49.910;12.530;2023-09-19T03:35:31;2.60;;;2.40;;
1460;SDS011;724;49.910;12.530;2023-09-19T03:37:58;2.70;;;2.50;;
1460;SDS011;724;49.910;12.530;2023-09-19T03:40:24;3.00;;;2.80;;
1460;SDS011;724;49.910;12.530;2023-09-19T03:42:52;2.50;;;2.30;;
1460;SDS011;724;49.910;12.530;2023-09-19T03:45:20;2.80;;;2.60;;
1460;SDS011;724;49.910;12.530;2023-09-19T03:47:49;2.90;;;2.70;;
1460;SDS011;724;49.910;12.530;2023-09-19T03:50:16;3.10;;;2.90;;
1460;SDS011;724;49.910;12.530;2023-09-19T03:52:43;2.90;;;2.70;;
1460;SDS011;724;49.910;12.530;2023-09-19T03:55:10;3.30;;;3.10;;
1460;SDS011;724;49.910;12.530;2023-09-19T03:57:36;3.07;;;2.87;;
1460;SDS011;724;49.910;12.530;2023-09-19T04:00:05;3.30;;;3.10;;
1460;SDS011;724;49.910;12.530;2023-09-19T04:02:37;3.57;;;3.37;;
1460;SDS011;724;49.910;12.530;2023-09-19T04:05:05;3.20;;;3.00;;
1460;SDS011;724;49.910;12.530;2023-09-19T04:07:32;3.60;;;3.40;;
1460;SDS011;724;49.910;12.530;2023-09-19T04:10:00;3.43;;;3.23;;
1460;SDS011;724;49.910;12.530;2023-09-19T04:12:28;3.60;;;3.40;;
1460;SDS011;724;49.910;12.530;2023-09-19T04:14:55;3.80;;;3.60;;
1460;SDS011;724;49.910;12.530;2023-09-19T04:17:23;3.60;;;3.40;;
1460;SDS011;724;49.910;12.530;2023-09-19T04:19:50;3.80;;;3.60;;
1460;SDS011;724;49.910;12.530;2023-09-19T04:22:16;3.83;;;3.63;;
1460;SDS011;724;49.910;12.530;2023-09-19T04:24:43;3.60;;;3.40;;
1460;SDS011;724;49.910;12.530;2023-09-19T04:27:10;3.80;;;3.60;;
1460;SDS011;724;49.910;12.530;2023-09-19T04:29:39;4.10;;;3.90;;
1460;SDS011;724;49.910;12.530;2023-09-19T04:32:06;4.80;;;4.50;;
1460;SDS011;724;49.910;12.530;2023-09-19T04:34:36;3.60;;;3.40;;
1460;SDS011;724;49.910;12.530;2023-09-19T04:37:03;4.40;;;4.10;;
1460;SDS011;724;49.910;12.530;2023-09-19T04:39:30;4.83;;;4.53;;
1460;SDS011;724;49.910;12.530;2023-09-19T04:41:57;4.30;;;4.00;;
1460;SDS011;724;49.910;12.530;2023-09-19T04:44:24;3.20;;;3.00;;
1460;SDS011;724;49.910;12.530;2023-09-19T04:46:51;4.70;;;4.40;;
1460;SDS011;724;49.910;12.530;2023-09-19T04:49:18;3.40;;;3.20;;
1460;SDS011;724;49.910;12.530;2023-09-19T04:51:46;3.00;;;2.80;;
1460;SDS011;724;49.910;12.530;2023-09-19T04:54:12;2.90;;;2.70;;
1460;SDS011;724;49.910;12.530;2023-09-19T04:56:40;2.80;;;2.60;;
1460;SDS011;724;49.910;12.530;2023-09-19T04:59:07;1.90;;;1.80;;
1460;SDS011;724;49.910;12.530;2023-09-19T05:01:35;2.00;;;1.90;;
1460;SDS011;724;49.910;12.530;2023-09-19T05:04:02;1.80;;;1.70;;
1460;SDS011;724;49.910;12.530;2023-09-19T05:06:30;1.60;;;1.50;;
1460;SDS011;724;49.910;12.530;2023-09-19T05:08:59;1.50;;;1.40;;
1460;SDS011;724;49.910;12.530;2023-09-19T05:11:26;1.60;;;1.50;;
1460;SDS011;724;49.910;12.530;2023-09-19T05:13:55;1.80;;;1.70;;
1460;SDS011;724;49.910;12.530;2023-09-19T05:16:22;1.37;;;1.27;;
1460;SDS011;724;49.910;12.530;2023-09-19T05:18:49;1.43;;;1.33;;
1460;SDS011;724;49.910;12.530;2023-09-19T05:21:15;1.60;;;1.50;;
1460;SDS011;724;49.910;12.530;2023-09-19T05:23:43;1.80;;;1.70;;
1460;SDS011;724;49.910;12.530;2023-09-19T05:26:11;1.90;;;1.80;;
1460;SDS011;724;49.910;12.530;2023-09-19T05:28:38;2.00;;;1.90;;
1460;SDS011;724;49.910;12.530;2023-09-19T05:31:04;2.00;;;1.90;;
1460;SDS011;724;49.910;12.530;2023-09-19T05:33:31;1.60;;;1.50;;
1460;SDS011;724;49.910;12.530;2023-09-19T05:35:58;1.50;;;1.40;;
1460;SDS011;724;49.910;12.530;2023-09-19T05:38:25;1.40;;;1.30;;
1460;SDS011;724;49.910;12.530;2023-09-19T05:40:52;1.40;;;1.30;;
1460;SDS011;724;49.910;12.530;2023-09-19T05:43:20;1.80;;;1.70;;
1460;SDS011;724;49.910;12.530;2023-09-19T05:45:47;1.60;;;1.50;;
1460;SDS011;724;49.910;12.530;2023-09-19T05:48:17;2.00;;;1.90;;
1460;SDS011;724;49.910;12.530;2023-09-19T05:50:46;1.90;;;1.80;;
1460;SDS011;724;49.910;12.530;2023-09-19T05:53:13;1.80;;;1.70;;
1460;SDS011;724;49.910;12.530;2023-09-19T05:55:41;1.90;;;1.80;;
1460;SDS011;724;49.910;12.530;2023-09-19T05:58:08;1.80;;;1.70;;
1460;SDS011;724;49.910;12.530;2023-09-19T06:00:36;1.63;;;1.53;;
1460;SDS011;724;49.910;12.530;2023-09-19T06:03:03;1.60;;;1.50;;
1460;SDS011;724;49.910;12.530;2023-09-19T06:05:30;1.50;;;1.40;;
1460;SDS011;724;49.910;12.530;2023-09-19T06:07:57;1.50;;;1.40;;
1460;SDS011;724;49.910;12.530;2023-09-19T06:10:25;1.50;;;1.40;;
1460;SDS011;724;49.910;12.530;2023-09-19T06:12:53;1.60;;;1.50;;
1460;SDS011;724;49.910;12.530;2023-09-19T06:15:23;1.80;;;1.70;;
1460;SDS011;724;49.910;12.530;2023-09-19T06:17:51;1.70;;;1.60;;
1460;SDS011;724;49.910;12.530;2023-09-19T06:20:20;1.50;;;1.40;;
1460;SDS011;724;49.910;12.530;2023-09-19T06:22:48;1.70;;;1.60;;
1460;SDS011;724;49.910;12.530;2023-09-19T06:25:15;1.80;;;1.70;;
1460;SDS011;724;49.910;12.530;2023-09-19T06:27:44;1.70;;;1.60;;
1460;SDS011;724;49.910;12.530;2023-09-19T06:30:11;1.70;;;1.60;;
1460;SDS011;724;49.910;12.530;2023-09-19T06:32:38;1.57;;;1.47;;
1460;SDS011;724;49.910;12.530;2023-09-19T06:35:10;1.90;;;1.80;;
1460;SDS011;724;49.910;12.530;2023-09-19T06:37:37;2.07;;;1.93;;
1460;SDS011;724;49.910;12.530;2023-09-19T06:40:06;2.50;;;2.30;;
1460;SDS011;724;49.910;12.530;2023-09-19T06:42:38;2.30;;;2.10;;
1460;SDS011;724;49.910;12.530;2023-09-19T06:45:06;2.40;;;2.20;;
1460;SDS011;724;49.910;12.530;2023-09-19T06:47:33;2.13;;;1.97;;
1460;SDS011;724;49.910;12.530;2023-09-19T06:50:01;2.30;;;2.10;;
1460;SDS011;724;49.910;12.530;2023-09-19T06:52:32;2.50;;;2.30;;
1460;SDS011;724;49.910;12.530;2023-09-19T06:54:59;2.50;;;2.30;;
1460;SDS011;724;49.910;12.530;2023-09-19T06:57:28;2.50;;;2.30;;
1460;SDS011;724;49.910;12.530;2023-09-19T06:59:55;2.87;;;2.67;;
1460;SDS011;724;49.910;12.530;2023-09-19T07:02:22;2.60;;;2.40;;
1460;SDS011;724;49.910;12.530;2023-09-19T07:04:49;2.90;;;2.70;;
1460;SDS011;724;49.910;12.530;2023-09-19T07:07:16;3.00;;;2.80;;
1460;SDS011;724;49.910;12.530;2023-09-19T07:09:44;3.90;;;3.70;;
1460;SDS011;724;49.910;12.530;2023-09-19T07:12:13;5.10;;;4.80;;
1460;SDS011;724;49.910;12.530;2023-09-19T07:14:40;5.37;;;5.07;;
1460;SDS011;724;49.910;12.530;2023-09-19T07:17:07;5.27;;;4.97;;
1460;SDS011;724;49.910;12.530;2023-09-19T07:19:34;5.30;;;5.00;;
1460;SDS011;724;49.910;12.530;2023-09-19T07:22:00;4.80;;;4.50;;
1460;SDS011;724;49.910;12.530;2023-09-19T07:24:28;4.50;;;4.20;;
1460;SDS011;724;49.910;12.530;2023-09-19T07:26:56;4.60;;;4.30;;
1460;SDS011;724;49.910;12.530;2023-09-19T07:29:23;5.33;;;5.03;;
1460;SDS011;724;49.910;12.530;2023-09-19T07:31:51;6.50;;;6.10;;
1460;SDS011;724;49.910;12.530;2023-09-19T07:34:18;6.90;;;6.50;;
1460;SDS011;724;49.910;12.530;2023-09-19T07:36:45;6.60;;;6.20;;
1460;SDS011;724;49.910;12.530;2023-09-19T07:39:12;5.60;;;5.30;;
1460;SDS011;724;49.910;12.530;2023-09-19T07:41:39;5.80;;;5.50;;
1460;SDS011;724;49.910;12.530;2023-09-19T07:44:08;5.60;;;5.30;;
1460;SDS011;724;49.910;12.530;2023-09-19T07:46:35;5.10;;;4.80;;
1460;SDS011;724;49.910;12.530;2023-09-19T07:49:02;4.70;;;4.40;;
1460;SDS011;724;49.910;12.530;2023-09-19T07:51:30;4.00;;;3.80;;
1460;SDS011;724;49.910;12.530;2023-09-19T07:53:58;4.73;;;4.43;;
1460;SDS011;724;49.910;12.530;2023-09-19T07:56:24;5.60;;;5.30;;
1460;SDS011;724;49.910;12.530;2023-09-19T07:58:52;7.70;;;7.30;;
1460;SDS011;724;49.910;12.530;2023-09-19T08:01:20;9.80;;;9.30;;
1460;SDS011;724;49.910;12.530;2023-09-19T08:03:48;9.80;;;9.30;;
1460;SDS011;724;49.910;12.530;2023-09-19T08:06:15;11.00;;;10.40;;
1460;SDS011;724;49.910;12.530;2023-09-19T08:08:44;11.10;;;10.50;;
1460;SDS011;724;49.910;12.530;2023-09-19T08:11:10;11.00;;;10.40;;
1460;SDS011;724;49.910;12.530;2023-09-19T08:13:37;10.00;;;9.50;;
1460;SDS011;724;49.910;12.530;2023-09-19T08:16:08;9.80;;;9.30;;
1460;SDS011;724;49.910;12.530;2023-09-19T08:18:37;11.20;;;10.60;;
1460;SDS011;724;49.910;12.530;2023-09-19T08:21:05;11.00;;;10.40;;
1460;SDS011;724;49.910;12.530;2023-09-19T08:23:33;11.00;;;10.40;;
1460;SDS011;724;49.910;12.530;2023-09-19T08:26:00;10.83;;;10.23;;
1460;SDS011;724;49.910;12.530;2023-09-19T08:28:31;11.80;;;11.20;;
1460;SDS011;724;49.910;12.530;2023-09-19T08:31:00;12.40;;;11.80;;
1460;SDS011;724;49.910;12.530;2023-09-19T08:33:29;12.40;;;11.80;;
1460;SDS011;724;49.910;12.530;2023-09-19T08:35:57;13.10;;;12.40;;
1460;SDS011;724;49.910;12.530;2023-09-19T08:38:24;13.10;;;12.40;;
1460;SDS011;724;49.910;12.530;2023-09-19T08:40:56;12.83;;;12.13;;
1460;SDS011;724;49.910;12.530;2023-09-19T08:43:24;13.00;;;12.30;;
1460;SDS011;724;49.910;12.530;2023-09-19T08:45:51;12.90;;;12.20;;
1460;SDS011;724;49.910;12.530;2023-09-19T08:48:24;12.73;;;12.03;;
1460;SDS011;724;49.910;12.530;2023-09-19T08:50:55;13.20;;;12.50;;
1460;SDS011;724;49.910;12.530;2023-09-19T08:53:31;13.03;;;12.33;;
1460;SDS011;724;49.910;12.530;2023-09-19T08:56:08;13.73;;;13.03;;
1460;SDS011;724;49.910;12.530;2023-09-19T08:58:39;13.10;;;12.40;;
1460;SDS011;724;49.910;12.530;2023-09-19T09:01:13;13.30;;;12.60;;
1460;SDS011;724;49.910;12.530;2023-09-19T09:03:42;13.50;;;12.80;;
1460;SDS011;724;49.910;12.530;2023-09-19T09:06:12;13.10;;;12.40;;
1460;SDS011;724;49.910;12.530;2023-09-19T09:08:40;13.13;;;12.43;;
1460;SDS011;724;49.910;12.530;2023-09-19T09:11:08;13.20;;;12.50;;
1460;SDS011;724;49.910;12.530;2023-09-19T09:13:36;13.10;;;12.40;;
1460;SDS011;724;49.910;12.530;2023-09-19T09:16:04;13.10;;;12.40;;
1460;SDS011;724;49.910;12.530;2023-09-19T09:18:31;12.80;;;12.10;;
1460;SDS011;724;49.910;12.530;2023-09-19T09:20:57;12.57;;;11.93;;
1460;SDS011;724;49.910;12.530;2023-09-19T09:23:26;12.20;;;11.60;;
1460;SDS011;724;49.910;12.530;2023-09-19T09:25:55;12.80;;;12.10;;
1460;SDS011;724;49.910;12.530;2023-09-19T09:28:27;12.87;;;12.17;;
1460;SDS011;724;49.910;12.530;2023-09-19T09:30:56;12.87;;;12.17;;
1460;SDS011;724;49.910;12.530;2023-09-19T09:33:23;13.10;;;12.40;;
1460;SDS011;724;49.910;12.530;2023-09-19T09:35:50;13.33;;;12.63;;
1460;SDS011;724;49.910;12.530;2023-09-19T09:38:18;12.90;;;12.20;;
1460;SDS011;724;49.910;12.530;2023-09-19T09:40:47;12.70;;;12.00;;
1460;SDS011;724;49.910;12.530;2023-09-19T09:43:31;12.53;;;11.90;;
1460;SDS011;724;49.910;12.530;2023-09-19T09:46:08;12.27;;;11.67;;
1460;SDS011;724;49.910;12.530;2023-09-19T09:48:57;12.33;;;11.73;;
1460;SDS011;724;49.910;12.530;2023-09-19T09:51:43;11.60;;;11.00;;
1460;SDS011;724;49.910;12.530;2023-09-19T09:54:13;12.10;;;11.50;;
1460;SDS011;724;49.910;12.530;2023-09-19T09:56:55;12.23;;;11.63;;
1460;SDS011;724;49.910;12.530;2023-09-19T10:02:11;11.10;;;10.50;;
1460;SDS011;724;49.910;12.530;2023-09-19T10:04:38;11.40;;;10.80;;
1460;SDS011;724;49.910;12.530;2023-09-19T10:07:23;11.57;;;10.97;;
1460;SDS011;724;49.910;12.530;2023-09-19T10:09:57;11.53;;;10.93;;
1460;SDS011;724;49.910;12.530;2023-09-19T10:12:41;12.40;;;11.80;;
1460;SDS011;724;49.910;12.530;2023-09-19T10:15:10;12.40;;;11.80;;
1460;SDS011;724;49.910;12.530;2023-09-19T10:17:40;12.23;;;11.63;;
1460;SDS011;724;49.910;12.530;2023-09-19T10:20:10;12.80;;;12.10;;
1460;SDS011;724;49.910;12.530;2023-09-19T10:22:49;12.80;;;12.10;;
1460;SDS011;724;49.910;12.530;2023-09-19T10:25:23;13.20;;;12.50;;
1460;SDS011;724;49.910;12.530;2023-09-19T10:27:55;12.10;;;11.50;;
1460;SDS011;724;49.910;12.530;2023-09-19T10:30:23;12.10;;;11.50;;
1460;SDS011;724;49.910;12.530;2023-09-19T10:32:56;12.10;;;11.50;;
1460;SDS011;724;49.910;12.530;2023-09-19T10:35:27;11.90;;;11.30;;
1460;SDS011;724;49.910;12.530;2023-09-19T10:37:55;12.40;;;11.80;;
1460;SDS011;724;49.910;12.530;2023-09-19T10:40:25;12.30;;;11.70;;
1460;SDS011;724;49.910;12.530;2023-09-19T10:43:00;12.23;;;11.63;;
1460;SDS011;724;49.910;12.530;2023-09-19T10:45:31;12.47;;;11.87;;
1460;SDS011;724;49.910;12.530;2023-09-19T10:47:59;12.17;;;11.57;;
1460;SDS011;724;49.910;12.530;2023-09-19T10:50:27;12.40;;;11.80;;
1460;SDS011;724;49.910;12.530;2023-09-19T10:52:59;12.47;;;11.87;;
1460;SDS011;724;49.910;12.530;2023-09-19T10:55:30;11.67;;;11.07;;
1460;SDS011;724;49.910;12.530;2023-09-19T10:58:01;12.00;;;11.40;;
1460;SDS011;724;49.910;12.530;2023-09-19T11:00:49;11.53;;;10.93;;
1460;SDS011;724;49.910;12.530;2023-09-19T11:03:18;12.10;;;11.50;;
1460;SDS011;724;49.910;12.530;2023-09-19T11:08:51;11.90;;;11.30;;
1460;SDS011;724;49.910;12.530;2023-09-19T11:14:15;12.00;;;11.40;;
1460;SDS011;724;49.910;12.530;2023-09-19T11:20:17;12.03;;;11.43;;
1460;SDS011;724;49.910;12.530;2023-09-19T11:23:19;11.70;;;11.10;;
1460;SDS011;724;49.910;12.530;2023-09-19T11:25:52;11.90;;;11.30;;
1460;SDS011;724;49.910;12.530;2023-09-19T11:28:32;11.47;;;10.87;;
1460;SDS011;724;49.910;12.530;2023-09-19T11:37:02;11.20;;;10.60;;
1460;SDS011;724;49.910;12.530;2023-09-19T11:39:30;10.80;;;10.20;;
1460;SDS011;724;49.910;12.530;2023-09-19T11:41:56;11.10;;;10.50;;
1460;SDS011;724;49.910;12.530;2023-09-19T11:44:32;11.17;;;10.57;;
1460;SDS011;724;49.910;12.530;2023-09-19T11:47:03;11.40;;;10.80;;
1460;SDS011;724;49.910;12.530;2023-09-19T11:49:32;11.30;;;10.70;;
1460;SDS011;724;49.910;12.530;2023-09-19T11:52:04;11.30;;;10.70;;
1460;SDS011;724;49.910;12.530;2023-09-19T11:54:33;11.00;;;10.40;;
1460;SDS011;724;49.910;12.530;2023-09-19T11:57:05;11.00;;;10.40;;
1460;SDS011;724;49.910;12.530;2023-09-19T11:59:33;10.63;;;10.03;;
1460;SDS011;724;49.910;12.530;2023-09-19T12:02:05;10.60;;;10.00;;
1460;SDS011;724;49.910;12.530;2023-09-19T12:04:34;9.70;;;9.20;;
1460;SDS011;724;49.910;12.530;2023-09-19T12:07:04;10.10;;;9.60;;
1460;SDS011;724;49.910;12.530;2023-09-19T12:09:36;10.20;;;9.70;;
1460;SDS011;724;49.910;12.530;2023-09-19T12:12:09;10.30;;;9.80;;
1460;SDS011;724;49.910;12.530;2023-09-19T12:14:37;11.33;;;10.73;;
1460;SDS011;724;49.910;12.530;2023-09-19T12:17:06;10.10;;;9.60;;
1460;SDS011;724;49.910;12.530;2023-09-19T12:19:34;11.10;;;10.50;;
1460;SDS011;724;49.910;12.530;2023-09-19T12:22:01;10.90;;;10.30;;
1460;SDS011;724;49.910;12.530;2023-09-19T12:24:30;10.60;;;10.00;;
1460;SDS011;724;49.910;12.530;2023-09-19T12:27:01;10.30;;;9.80;;
1460;SDS011;724;49.910;12.530;2023-09-19T12:29:30;10.10;;;9.60;;
1460;SDS011;724;49.910;12.530;2023-09-19T12:32:01;10.00;;;9.50;;
1460;SDS011;724;49.910;12.530;2023-09-19T12:34:31;11.00;;;10.40;;
1460;SDS011;724;49.910;12.530;2023-09-19T12:37:05;10.27;;;9.77;;
1460;SDS011;724;49.910;12.530;2023-09-19T12:39:37;10.10;;;9.60;;
1460;SDS011;724;49.910;12.530;2023-09-19T12:42:06;10.10;;;9.60;;
1460;SDS011;724;49.910;12.530;2023-09-19T12:44:35;10.70;;;10.10;;
1460;SDS011;724;49.910;12.530;2023-09-19T12:47:08;10.80;;;10.20;;
1460;SDS011;724;49.910;12.530;2023-09-19T12:49:36;10.13;;;9.63;;
1460;SDS011;724;49.910;12.530;2023-09-19T12:52:24;10.83;;;10.23;;
1460;SDS011;724;49.910;12.530;2023-09-19T12:54:51;11.00;;;10.40;;
1460;SDS011;724;49.910;12.530;2023-09-19T12:57:23;10.80;;;10.20;;
1460;SDS011;724;49.910;12.530;2023-09-19T12:59:51;10.70;;;10.10;;
1460;SDS011;724;49.910;12.530;2023-09-19T13:02:18;10.80;;;10.20;;
1460;SDS011;724;49.910;12.530;2023-09-19T13:04:51;10.90;;;10.30;;
1460;SDS011;724;49.910;12.530;2023-09-19T13:10:12;10.40;;;9.90;;
1460;SDS011;724;49.910;12.530;2023-09-19T13:12:42;10.10;;;9.60;;
1460;SDS011;724;49.910;12.530;2023-09-19T13:15:13;10.80;;;10.20;;
1460;SDS011;724;49.910;12.530;2023-09-19T13:17:44;10.70;;;10.10;;
1460;SDS011;724;49.910;12.530;2023-09-19T13:20:22;10.30;;;9.80;;
1460;SDS011;724;49.910;12.530;2023-09-19T13:22:55;10.73;;;10.13;;
1460;SDS011;724;49.910;12.530;2023-09-19T13:25:25;10.80;;;10.20;;
1460;SDS011;724;49.910;12.530;2023-09-19T13:27:55;10.20;;;9.70;;
1460;SDS011;724;49.910;12.530;2023-09-19T13:30:25;10.03;;;9.53;;
1460;SDS011;724;49.910;12.530;2023-09-19T13:33:04;10.47;;;9.93;;
1460;SDS011;724;49.910;12.530;2023-09-19T13:35:32;10.00;;;9.50;;
1460;SDS011;724;49.910;12.530;2023-09-19T13:38:00;10.33;;;9.83;;
1460;SDS011;724;49.910;12.530;2023-09-19T13:40:26;9.70;;;9.20;;
1460;SDS011;724;49.910;12.530;2023-09-19T13:43:02;9.90;;;9.40;;
1460;SDS011;724;49.910;12.530;2023-09-19T13:45:28;9.80;;;9.30;;
1460;SDS011;724;49.910;12.530;2023-09-19T13:48:01;10.17;;;9.67;;
1460;SDS011;724;49.910;12.530;2023-09-19T13:50:28;10.53;;;9.97;;
1460;SDS011;724;49.910;12.530;2023-09-19T13:52:56;10.40;;;9.90;;
1460;SDS011;724;49.910;12.530;2023-09-19T13:55:27;10.40;;;9.90;;
1460;SDS011;724;49.910;12.530;2023-09-19T13:57:53;10.60;;;10.00;;
1460;SDS011;724;49.910;12.530;2023-09-19T14:00:23;10.30;;;9.80;;
1460;SDS011;724;49.910;12.530;2023-09-19T14:02:50;10.20;;;9.70;;
1460;SDS011;724;49.910;12.530;2023-09-19T14:05:17;10.27;;;9.77;;
1460;SDS011;724;49.910;12.530;2023-09-19T14:07:45;10.30;;;9.80;;
1460;SDS011;724;49.910;12.530;2023-09-19T14:10:12;10.60;;;10.00;;
1460;SDS011;724;49.910;12.530;2023-09-19T14:12:43;11.00;;;10.40;;
1460;SDS011;724;49.910;12.530;2023-09-19T14:15:11;11.13;;;10.53;;
1460;SDS011;724;49.910;12.530;2023-09-19T14:17:38;10.60;;;10.00;;
1460;SDS011;724;49.910;12.530;2023-09-19T14:20:07;10.80;;;10.20;;
1460;SDS011;724;49.910;12.530;2023-09-19T14:22:35;11.10;;;10.50;;
1460;SDS011;724;49.910;12.530;2023-09-19T14:25:02;10.70;;;10.10;;
1460;SDS011;724;49.910;12.530;2023-09-19T14:27:29;10.97;;;10.37;;
1460;SDS011;724;49.910;12.530;2023-09-19T14:29:57;11.20;;;10.60;;
1460;SDS011;724;49.910;12.530;2023-09-19T14:32:24;10.70;;;10.10;;
1460;SDS011;724;49.910;12.530;2023-09-19T14:34:51;10.90;;;10.30;;
1460;SDS011;724;49.910;12.530;2023-09-19T14:37:20;11.00;;;10.40;;
1460;SDS011;724;49.910;12.530;2023-09-19T14:39:47;10.70;;;10.10;;
1460;SDS011;724;49.910;12.530;2023-09-19T14:42:14;10.97;;;10.37;;
1460;SDS011;724;49.910;12.530;2023-09-19T14:44:42;10.40;;;9.90;;
1460;SDS011;724;49.910;12.530;2023-09-19T14:47:11;10.53;;;9.97;;
1460;SDS011;724;49.910;12.530;2023-09-19T14:49:38;10.73;;;10.13;;
1460;SDS011;724;49.910;12.530;2023-09-19T14:52:07;10.90;;;10.30;;
1460;SDS011;724;49.910;12.530;2023-09-19T14:54:34;11.00;;;10.40;;
1460;SDS011;724;49.910;12.530;2023-09-19T14:57:03;11.00;;;10.40;;
1460;SDS011;724;49.910;12.530;2023-09-19T14:59:30;11.20;;;10.60;;
1460;SDS011;724;49.910;12.530;2023-09-19T15:01:57;10.90;;;10.30;;
1460;SDS011;724;49.910;12.530;2023-09-19T15:04:25;10.87;;;10.27;;
1460;SDS011;724;49.910;12.530;2023-09-19T15:06:55;11.30;;;10.70;;
1460;SDS011;724;49.910;12.530;2023-09-19T15:09:22;11.20;;;10.60;;
1460;SDS011;724;49.910;12.530;2023-09-19T15:11:51;10.80;;;10.20;;
1460;SDS011;724;49.910;12.530;2023-09-19T15:14:18;10.90;;;10.30;;
1460;SDS011;724;49.910;12.530;2023-09-19T15:16:45;11.17;;;10.57;;
1460;SDS011;724;49.910;12.530;2023-09-19T15:19:13;11.30;;;10.70;;
1460;SDS011;724;49.910;12.530;2023-09-19T15:21:41;11.47;;;10.87;;
1460;SDS011;724;49.910;12.530;2023-09-19T15:24:08;11.57;;;10.97;;
1460;SDS011;724;49.910;12.530;2023-09-19T15:26:35;11.13;;;10.53;;
1460;SDS011;724;49.910;12.530;2023-09-19T15:29:05;11.30;;;10.70;;
1460;SDS011;724;49.910;12.530;2023-09-19T15:31:32;11.40;;;10.80;;
1460;SDS011;724;49.910;12.530;2023-09-19T15:34:01;11.50;;;10.90;;
1460;SDS011;724;49.910;12.530;2023-09-19T15:36:28;11.40;;;10.80;;
1460;SDS011;724;49.910;12.530;2023-09-19T15:38:57;11.17;;;10.57;;
1460;SDS011;724;49.910;12.530;2023-09-19T15:41:25;11.00;;;10.40;;
1460;SDS011;724;49.910;12.530;2023-09-19T15:43:53;11.27;;;10.67;;
1460;SDS011;724;49.910;12.530;2023-09-19T15:46:20;11.20;;;10.60;;
1460;SDS011;724;49.910;12.530;2023-09-19T15:48:47;11.60;;;11.00;;
1460;SDS011;724;49.910;12.530;2023-09-19T15:51:15;11.30;;;10.70;;
1460;SDS011;724;49.910;12.530;2023-09-19T15:53:43;11.10;;;10.50;;
1460;SDS011;724;49.910;12.530;2023-09-19T15:56:11;11.60;;;11.00;;
1460;SDS011;724;49.910;12.530;2023-09-19T15:58:39;11.20;;;10.60;;
1460;SDS011;724;49.910;12.530;2023-09-19T16:01:06;11.20;;;10.60;;
1460;SDS011;724;49.910;12.530;2023-09-19T16:03:34;11.30;;;10.70;;
1460;SDS011;724;49.910;12.530;2023-09-19T16:06:01;11.40;;;10.80;;
1460;SDS011;724;49.910;12.530;2023-09-19T16:08:33;11.40;;;10.80;;
1460;SDS011;724;49.910;12.530;2023-09-19T16:11:00;11.27;;;10.67;;
1460;SDS011;724;49.910;12.530;2023-09-19T16:13:29;11.17;;;10.57;;
1460;SDS011;724;49.910;12.530;2023-09-19T16:16:05;11.30;;;10.70;;
1460;SDS011;724;49.910;12.530;2023-09-19T16:18:33;11.00;;;10.40;;
1460;SDS011;724;49.910;12.530;2023-09-19T16:21:03;11.40;;;10.80;;
1460;SDS011;724;49.910;12.530;2023-09-19T16:23:30;11.53;;;10.93;;
1460;SDS011;724;49.910;12.530;2023-09-19T16:26:01;11.00;;;10.40;;
1460;SDS011;724;49.910;12.530;2023-09-19T16:28:31;11.40;;;10.80;;
1460;SDS011;724;49.910;12.530;2023-09-19T16:30:59;11.40;;;10.80;;
1460;SDS011;724;49.910;12.530;2023-09-19T16:33:26;11.50;;;10.90;;
1460;SDS011;724;49.910;12.530;2023-09-19T16:35:53;11.60;;;11.00;;
1460;SDS011;724;49.910;12.530;2023-09-19T16:38:20;11.30;;;10.70;;
1460;SDS011;724;49.910;12.530;2023-09-19T16:40:51;11.10;;;10.50;;
1460;SDS011;724;49.910;12.530;2023-09-19T16:43:19;11.37;;;10.77;;
1460;SDS011;724;49.910;12.530;2023-09-19T16:45:52;11.30;;;10.70;;
1460;SDS011;724;49.910;12.530;2023-09-19T16:48:20;11.40;;;10.80;;
1460;SDS011;724;49.910;12.530;2023-09-19T16:50:48;11.60;;;11.00;;
1460;SDS011;724;49.910;12.530;2023-09-19T16:53:15;11.57;;;10.97;;
1460;SDS011;724;49.910;12.530;2023-09-19T16:55:42;11.60;;;11.00;;
1460;SDS011;724;49.910;12.530;2023-09-19T16:58:08;11.10;;;10.50;;
1460;SDS011;724;49.910;12.530;2023-09-19T17:00:35;11.10;;;10.50;;
1460;SDS011;724;49.910;12.530;2023-09-19T17:03:04;11.30;;;10.70;;
1460;SDS011;724;49.910;12.530;2023-09-19T17:05:33;10.70;;;10.10;;
1460;SDS011;724;49.910;12.530;2023-09-19T17:08:00;11.10;;;10.50;;
1460;SDS011;724;49.910;12.530;2023-09-19T17:10:29;11.00;;;10.40;;
1460;SDS011;724;49.910;12.530;2023-09-19T17:12:57;10.40;;;9.90;;
1460;SDS011;724;49.910;12.530;2023-09-19T17:15:24;10.40;;;9.90;;
1460;SDS011;724;49.910;12.530;2023-09-19T17:17:54;10.40;;;9.90;;
1460;SDS011;724;49.910;12.530;2023-09-19T17:20:23;10.70;;;10.10;;